sensor_id;sensor_type;location;lat;lon;timestamp;P1;durP1;ratioP1;P2;durP2;ratioP2
44270;SDS011;29963;44.594;11.368;2022-08-01T00:00:21;1.92;;;1.30;;
44270;SDS011;29963;44.594;11.368;2022-08-01T00:02:47;2.22;;;1.58;;
44270;SDS011;29963;44.594;11.368;2022-08-01T00:05:13;2.85;;;1.55;;
44270;SDS011;29963;44.594;11.368;2022-08-01T00:07:39;2.15;;;1.45;;
44270;SDS011;29963;44.594;11.368;2022-08-01T00:10:06;2.78;;;1.23;;
44270;SDS011;29963;44.594;11.368;2022-08-01T00:12:35;2.20;;;1.50;;
44270;SDS011;29963;44.594;11.368;2022-08-01T00:15:01;1.50;;;1.35;;
44270;SDS011;29963;44.594;11.368;2022-08-01T00:17:28;1.70;;;1.40;;
44270;SDS011;29963;44.594;11.368;2022-08-01T00:19:53;2.20;;;1.60;;
44270;SDS011;29963;44.594;11.368;2022-08-01T00:22:19;2.15;;;1.40;;
44270;SDS011;29963;44.594;11.368;2022-08-01T00:24:44;2.67;;;1.63;;
44270;SDS011;29963;44.594;11.368;2022-08-01T00:27:10;2.13;;;1.85;;
44270;SDS011;29963;44.594;11.368;2022-08-01T00:29:36;2.30;;;1.75;;
44270;SDS011;29963;44.594;11.368;2022-08-01T00:32:01;1.90;;;1.50;;
44270;SDS011;29963;44.594;11.368;2022-08-01T00:34:27;2.08;;;1.67;;
44270;SDS011;29963;44.594;11.368;2022-08-01T00:36:53;1.67;;;1.33;;
44270;SDS011;29963;44.594;11.368;2022-08-01T00:39:19;1.77;;;1.60;;
44270;SDS011;29963;44.594;11.368;2022-08-01T00:41:44;4.68;;;1.35;;
44270;SDS011;29963;44.594;11.368;2022-08-01T00:44:10;4.47;;;1.40;;
44270;SDS011;29963;44.594;11.368;2022-08-01T00:46:38;1.95;;;1.45;;
44270;SDS011;29963;44.594;11.368;2022-08-01T00:49:04;6.00;;;1.48;;
44270;SDS011;29963;44.594;11.368;2022-08-01T00:51:30;1.60;;;1.42;;
44270;SDS011;29963;44.594;11.368;2022-08-01T00:53:56;1.67;;;1.52;;
44270;SDS011;29963;44.594;11.368;2022-08-01T00:56:24;1.50;;;1.40;;
44270;SDS011;29963;44.594;11.368;2022-08-01T00:58:50;3.72;;;1.65;;
44270;SDS011;29963;44.594;11.368;2022-08-01T01:01:17;5.03;;;1.80;;
44270;SDS011;29963;44.594;11.368;2022-08-01T01:03:45;2.10;;;1.90;;
44270;SDS011;29963;44.594;11.368;2022-08-01T01:06:20;3.83;;;1.80;;
44270;SDS011;29963;44.594;11.368;2022-08-01T01:08:53;2.50;;;2.05;;
44270;SDS011;29963;44.594;11.368;2022-08-01T01:14:21;1.30;;;1.17;;
44270;SDS011;29963;44.594;11.368;2022-08-01T01:16:55;1.67;;;1.50;;
44270;SDS011;29963;44.594;11.368;2022-08-01T01:19:24;2.22;;;1.88;;
44270;SDS011;29963;44.594;11.368;2022-08-01T01:22:02;2.83;;;1.88;;
44270;SDS011;29963;44.594;11.368;2022-08-01T01:30:21;2.20;;;1.10;;
44270;SDS011;29963;44.594;11.368;2022-08-01T01:32:50;2.00;;;1.80;;
44270;SDS011;29963;44.594;11.368;2022-08-01T01:35:22;2.40;;;1.98;;
44270;SDS011;29963;44.594;11.368;2022-08-01T01:37:54;1.55;;;1.45;;
44270;SDS011;29963;44.594;11.368;2022-08-01T01:40:25;1.50;;;1.40;;
44270;SDS011;29963;44.594;11.368;2022-08-01T01:42:51;2.22;;;1.75;;
44270;SDS011;29963;44.594;11.368;2022-08-01T01:45:20;1.73;;;1.63;;
44270;SDS011;29963;44.594;11.368;2022-08-01T01:47:48;2.70;;;1.58;;
44270;SDS011;29963;44.594;11.368;2022-08-01T01:50:15;2.45;;;2.08;;
44270;SDS011;29963;44.594;11.368;2022-08-01T01:52:44;2.17;;;1.83;;
44270;SDS011;29963;44.594;11.368;2022-08-01T01:55:11;1.95;;;1.55;;
44270;SDS011;29963;44.594;11.368;2022-08-01T01:57:39;2.25;;;1.65;;
44270;SDS011;29963;44.594;11.368;2022-08-01T02:00:07;2.97;;;1.80;;
44270;SDS011;29963;44.594;11.368;2022-08-01T02:02:37;1.88;;;1.58;;
44270;SDS011;29963;44.594;11.368;2022-08-01T02:05:05;5.57;;;2.28;;
44270;SDS011;29963;44.594;11.368;2022-08-01T02:07:36;2.60;;;2.08;;
44270;SDS011;29963;44.594;11.368;2022-08-01T02:10:04;2.53;;;1.98;;
44270;SDS011;29963;44.594;11.368;2022-08-01T02:12:35;3.83;;;2.10;;
44270;SDS011;29963;44.594;11.368;2022-08-01T02:15:02;2.78;;;1.70;;
44270;SDS011;29963;44.594;11.368;2022-08-01T02:17:29;1.85;;;1.75;;
44270;SDS011;29963;44.594;11.368;2022-08-01T02:19:56;1.88;;;1.73;;
44270;SDS011;29963;44.594;11.368;2022-08-01T02:22:40;2.95;;;1.65;;
44270;SDS011;29963;44.594;11.368;2022-08-01T02:25:36;2.65;;;1.98;;
44270;SDS011;29963;44.594;11.368;2022-08-01T02:28:19;2.05;;;1.55;;
44270;SDS011;29963;44.594;11.368;2022-08-01T02:31:04;1.52;;;1.42;;
44270;SDS011;29963;44.594;11.368;2022-08-01T02:33:38;2.78;;;1.85;;
44270;SDS011;29963;44.594;11.368;2022-08-01T02:36:06;1.60;;;1.50;;
44270;SDS011;29963;44.594;11.368;2022-08-01T02:38:37;2.33;;;1.95;;
44270;SDS011;29963;44.594;11.368;2022-08-01T02:41:09;1.95;;;1.77;;
44270;SDS011;29963;44.594;11.368;2022-08-01T02:43:38;3.63;;;1.73;;
44270;SDS011;29963;44.594;11.368;2022-08-01T02:46:09;2.45;;;1.88;;
44270;SDS011;29963;44.594;11.368;2022-08-01T02:48:37;1.70;;;1.60;;
44270;SDS011;29963;44.594;11.368;2022-08-01T02:51:05;4.25;;;2.13;;
44270;SDS011;29963;44.594;11.368;2022-08-01T02:53:33;5.35;;;1.83;;
44270;SDS011;29963;44.594;11.368;2022-08-01T02:56:03;1.95;;;1.75;;
44270;SDS011;29963;44.594;11.368;2022-08-01T02:58:30;3.30;;;1.75;;
44270;SDS011;29963;44.594;11.368;2022-08-01T03:00:58;3.00;;;2.00;;
44270;SDS011;29963;44.594;11.368;2022-08-01T03:03:24;4.80;;;2.00;;
44270;SDS011;29963;44.594;11.368;2022-08-01T03:05:51;2.90;;;1.92;;
44270;SDS011;29963;44.594;11.368;2022-08-01T03:08:17;2.47;;;2.28;;
44270;SDS011;29963;44.594;11.368;2022-08-01T03:10:45;1.98;;;1.73;;
44270;SDS011;29963;44.594;11.368;2022-08-01T03:13:12;3.08;;;1.73;;
44270;SDS011;29963;44.594;11.368;2022-08-01T03:15:40;1.83;;;1.70;;
44270;SDS011;29963;44.594;11.368;2022-08-01T03:18:08;3.80;;;1.80;;
44270;SDS011;29963;44.594;11.368;2022-08-01T03:20:35;2.65;;;2.13;;
44270;SDS011;29963;44.594;11.368;2022-08-01T03:23:01;2.10;;;1.90;;
44270;SDS011;29963;44.594;11.368;2022-08-01T03:25:30;1.48;;;1.38;;
44270;SDS011;29963;44.594;11.368;2022-08-01T03:28:01;5.50;;;1.73;;
44270;SDS011;29963;44.594;11.368;2022-08-01T03:30:28;1.95;;;1.58;;
44270;SDS011;29963;44.594;11.368;2022-08-01T03:32:56;3.10;;;1.90;;
44270;SDS011;29963;44.594;11.368;2022-08-01T03:35:23;2.05;;;1.75;;
44270;SDS011;29963;44.594;11.368;2022-08-01T03:37:53;2.22;;;2.03;;
44270;SDS011;29963;44.594;11.368;2022-08-01T03:40:27;2.05;;;1.85;;
44270;SDS011;29963;44.594;11.368;2022-08-01T03:42:57;3.47;;;1.67;;
44270;SDS011;29963;44.594;11.368;2022-08-01T03:45:27;1.85;;;1.35;;
44270;SDS011;29963;44.594;11.368;2022-08-01T03:47:59;3.25;;;2.10;;
44270;SDS011;29963;44.594;11.368;2022-08-01T03:50:30;2.65;;;1.92;;
44270;SDS011;29963;44.594;11.368;2022-08-01T03:53:22;1.83;;;1.70;;
44270;SDS011;29963;44.594;11.368;2022-08-01T03:55:50;2.08;;;1.60;;
44270;SDS011;29963;44.594;11.368;2022-08-01T03:58:18;2.08;;;1.45;;
44270;SDS011;29963;44.594;11.368;2022-08-01T04:00:44;3.45;;;1.60;;
44270;SDS011;29963;44.594;11.368;2022-08-01T04:03:11;2.78;;;1.70;;
44270;SDS011;29963;44.594;11.368;2022-08-01T04:05:41;2.38;;;1.63;;
44270;SDS011;29963;44.594;11.368;2022-08-01T04:08:07;2.13;;;1.92;;
44270;SDS011;29963;44.594;11.368;2022-08-01T04:10:33;2.33;;;1.83;;
44270;SDS011;29963;44.594;11.368;2022-08-01T04:12:59;5.28;;;1.75;;
44270;SDS011;29963;44.594;11.368;2022-08-01T04:15:25;9.52;;;1.92;;
44270;SDS011;29963;44.594;11.368;2022-08-01T04:17:50;1.70;;;1.60;;
44270;SDS011;29963;44.594;11.368;2022-08-01T04:20:16;1.83;;;1.73;;
44270;SDS011;29963;44.594;11.368;2022-08-01T04:22:42;2.00;;;1.85;;
44270;SDS011;29963;44.594;11.368;2022-08-01T04:25:19;1.63;;;1.52;;
44270;SDS011;29963;44.594;11.368;2022-08-01T04:27:49;3.90;;;1.98;;
44270;SDS011;29963;44.594;11.368;2022-08-01T04:30:27;2.25;;;1.50;;
44270;SDS011;29963;44.594;11.368;2022-08-01T04:32:56;2.42;;;1.42;;
44270;SDS011;29963;44.594;11.368;2022-08-01T04:35:24;2.47;;;2.00;;
44270;SDS011;29963;44.594;11.368;2022-08-01T04:37:51;2.38;;;2.03;;
44270;SDS011;29963;44.594;11.368;2022-08-01T04:40:19;1.92;;;1.75;;
44270;SDS011;29963;44.594;11.368;2022-08-01T04:42:47;2.75;;;1.73;;
44270;SDS011;29963;44.594;11.368;2022-08-01T04:45:14;2.75;;;2.00;;
44270;SDS011;29963;44.594;11.368;2022-08-01T04:47:40;3.17;;;1.80;;
44270;SDS011;29963;44.594;11.368;2022-08-01T04:50:07;2.33;;;2.03;;
44270;SDS011;29963;44.594;11.368;2022-08-01T04:52:35;4.20;;;2.35;;
44270;SDS011;29963;44.594;11.368;2022-08-01T04:55:02;4.20;;;2.35;;
44270;SDS011;29963;44.594;11.368;2022-08-01T04:57:29;2.60;;;1.95;;
44270;SDS011;29963;44.594;11.368;2022-08-01T04:59:55;2.83;;;1.77;;
44270;SDS011;29963;44.594;11.368;2022-08-01T05:02:24;3.58;;;1.80;;
44270;SDS011;29963;44.594;11.368;2022-08-01T05:04:53;3.47;;;1.90;;
44270;SDS011;29963;44.594;11.368;2022-08-01T05:07:20;2.78;;;1.73;;
44270;SDS011;29963;44.594;11.368;2022-08-01T05:09:46;2.45;;;1.85;;
44270;SDS011;29963;44.594;11.368;2022-08-01T05:12:12;2.95;;;1.70;;
44270;SDS011;29963;44.594;11.368;2022-08-01T05:14:38;2.63;;;1.88;;
44270;SDS011;29963;44.594;11.368;2022-08-01T05:17:05;2.80;;;1.80;;
44270;SDS011;29963;44.594;11.368;2022-08-01T05:19:33;3.42;;;1.60;;
44270;SDS011;29963;44.594;11.368;2022-08-01T05:21:59;2.50;;;1.90;;
44270;SDS011;29963;44.594;11.368;2022-08-01T05:24:28;3.95;;;2.28;;
44270;SDS011;29963;44.594;11.368;2022-08-01T05:26:57;2.80;;;2.00;;
44270;SDS011;29963;44.594;11.368;2022-08-01T05:29:23;2.75;;;1.65;;
44270;SDS011;29963;44.594;11.368;2022-08-01T05:31:50;2.75;;;2.20;;
44270;SDS011;29963;44.594;11.368;2022-08-01T05:34:16;5.57;;;1.52;;
44270;SDS011;29963;44.594;11.368;2022-08-01T05:36:42;7.22;;;2.30;;
44270;SDS011;29963;44.594;11.368;2022-08-01T05:39:08;6.15;;;1.63;;
44270;SDS011;29963;44.594;11.368;2022-08-01T05:41:35;2.63;;;2.13;;
44270;SDS011;29963;44.594;11.368;2022-08-01T05:44:02;5.18;;;2.05;;
44270;SDS011;29963;44.594;11.368;2022-08-01T05:46:30;4.72;;;1.60;;
44270;SDS011;29963;44.594;11.368;2022-08-01T05:48:57;2.60;;;2.05;;
44270;SDS011;29963;44.594;11.368;2022-08-01T05:51:23;2.53;;;1.90;;
44270;SDS011;29963;44.594;11.368;2022-08-01T05:53:49;3.58;;;1.90;;
44270;SDS011;29963;44.594;11.368;2022-08-01T05:56:15;1.80;;;1.65;;
44270;SDS011;29963;44.594;11.368;2022-08-01T05:58:41;4.13;;;1.92;;
44270;SDS011;29963;44.594;11.368;2022-08-01T06:01:06;4.90;;;2.10;;
44270;SDS011;29963;44.594;11.368;2022-08-01T06:03:32;4.22;;;1.80;;
44270;SDS011;29963;44.594;11.368;2022-08-01T06:05:59;7.03;;;2.25;;
44270;SDS011;29963;44.594;11.368;2022-08-01T06:08:25;2.63;;;1.67;;
44270;SDS011;29963;44.594;11.368;2022-08-01T06:10:51;4.38;;;2.00;;
44270;SDS011;29963;44.594;11.368;2022-08-01T06:13:16;2.20;;;1.50;;
44270;SDS011;29963;44.594;11.368;2022-08-01T06:15:44;2.25;;;1.98;;
44270;SDS011;29963;44.594;11.368;2022-08-01T06:18:10;2.60;;;1.90;;
44270;SDS011;29963;44.594;11.368;2022-08-01T06:20:36;2.53;;;1.85;;
44270;SDS011;29963;44.594;11.368;2022-08-01T06:23:02;3.47;;;1.90;;
44270;SDS011;29963;44.594;11.368;2022-08-01T06:25:28;4.35;;;2.22;;
44270;SDS011;29963;44.594;11.368;2022-08-01T06:27:53;4.88;;;1.77;;
44270;SDS011;29963;44.594;11.368;2022-08-01T06:30:19;3.03;;;2.10;;
44270;SDS011;29963;44.594;11.368;2022-08-01T06:32:45;3.90;;;2.40;;
44270;SDS011;29963;44.594;11.368;2022-08-01T06:35:11;2.83;;;1.85;;
44270;SDS011;29963;44.594;11.368;2022-08-01T06:37:36;2.08;;;1.77;;
44270;SDS011;29963;44.594;11.368;2022-08-01T06:40:03;4.38;;;1.80;;
44270;SDS011;29963;44.594;11.368;2022-08-01T06:42:29;2.90;;;1.80;;
44270;SDS011;29963;44.594;11.368;2022-08-01T06:45:03;2.58;;;2.38;;
44270;SDS011;29963;44.594;11.368;2022-08-01T06:47:30;8.40;;;3.20;;
44270;SDS011;29963;44.594;11.368;2022-08-01T06:49:55;4.35;;;3.17;;
44270;SDS011;29963;44.594;11.368;2022-08-01T06:52:21;7.32;;;3.85;;
44270;SDS011;29963;44.594;11.368;2022-08-01T06:54:47;5.53;;;4.22;;
44270;SDS011;29963;44.594;11.368;2022-08-01T06:57:12;6.90;;;4.85;;
44270;SDS011;29963;44.594;11.368;2022-08-01T06:59:38;6.32;;;5.72;;
44270;SDS011;29963;44.594;11.368;2022-08-01T07:02:04;6.70;;;6.00;;
44270;SDS011;29963;44.594;11.368;2022-08-01T07:04:30;7.15;;;5.38;;
44270;SDS011;29963;44.594;11.368;2022-08-01T07:06:56;8.73;;;4.25;;
44270;SDS011;29963;44.594;11.368;2022-08-01T07:09:22;9.52;;;4.40;;
44270;SDS011;29963;44.594;11.368;2022-08-01T07:11:47;5.40;;;3.35;;
44270;SDS011;29963;44.594;11.368;2022-08-01T07:14:13;3.97;;;3.53;;
44270;SDS011;29963;44.594;11.368;2022-08-01T07:16:42;7.28;;;3.55;;
44270;SDS011;29963;44.594;11.368;2022-08-01T07:19:07;3.80;;;3.50;;
44270;SDS011;29963;44.594;11.368;2022-08-01T07:21:33;3.70;;;3.40;;
44270;SDS011;29963;44.594;11.368;2022-08-01T07:23:59;4.75;;;3.25;;
44270;SDS011;29963;44.594;11.368;2022-08-01T07:26:25;3.00;;;2.70;;
44270;SDS011;29963;44.594;11.368;2022-08-01T07:28:52;3.13;;;2.83;;
44270;SDS011;29963;44.594;11.368;2022-08-01T07:31:18;5.28;;;4.68;;
44270;SDS011;29963;44.594;11.368;2022-08-01T07:33:44;5.60;;;5.10;;
44270;SDS011;29963;44.594;11.368;2022-08-01T07:36:10;8.38;;;5.93;;
44270;SDS011;29963;44.594;11.368;2022-08-01T07:38:35;11.38;;;7.60;;
44270;SDS011;29963;44.594;11.368;2022-08-01T07:41:01;8.85;;;8.05;;
44270;SDS011;29963;44.594;11.368;2022-08-01T07:43:27;10.77;;;9.57;;
44270;SDS011;29963;44.594;11.368;2022-08-01T07:45:54;10.60;;;9.35;;
44270;SDS011;29963;44.594;11.368;2022-08-01T07:48:20;10.50;;;7.53;;
44270;SDS011;29963;44.594;11.368;2022-08-01T07:50:49;8.35;;;7.53;;
44270;SDS011;29963;44.594;11.368;2022-08-01T07:53:15;7.95;;;7.15;;
44270;SDS011;29963;44.594;11.368;2022-08-01T07:55:41;8.18;;;6.55;;
44270;SDS011;29963;44.594;11.368;2022-08-01T07:58:07;6.32;;;5.78;;
44270;SDS011;29963;44.594;11.368;2022-08-01T08:00:33;6.80;;;5.80;;
44270;SDS011;29963;44.594;11.368;2022-08-01T08:02:59;9.63;;;4.80;;
44270;SDS011;29963;44.594;11.368;2022-08-01T08:05:25;5.43;;;4.88;;
44270;SDS011;29963;44.594;11.368;2022-08-01T08:07:51;7.30;;;4.65;;
44270;SDS011;29963;44.594;11.368;2022-08-01T08:10:17;6.97;;;3.90;;
44270;SDS011;29963;44.594;11.368;2022-08-01T08:12:42;4.78;;;4.35;;
44270;SDS011;29963;44.594;11.368;2022-08-01T08:15:08;4.85;;;4.35;;
44270;SDS011;29963;44.594;11.368;2022-08-01T08:17:34;3.90;;;3.60;;
44270;SDS011;29963;44.594;11.368;2022-08-01T08:20:04;4.53;;;4.03;;
44270;SDS011;29963;44.594;11.368;2022-08-01T08:22:30;7.00;;;3.97;;
44270;SDS011;29963;44.594;11.368;2022-08-01T08:24:56;5.30;;;4.35;;
44270;SDS011;29963;44.594;11.368;2022-08-01T08:27:24;10.13;;;4.20;;
44270;SDS011;29963;44.594;11.368;2022-08-01T08:29:50;13.23;;;4.63;;
44270;SDS011;29963;44.594;11.368;2022-08-01T08:32:16;6.13;;;4.13;;
44270;SDS011;29963;44.594;11.368;2022-08-01T08:34:41;4.88;;;3.22;;
44270;SDS011;29963;44.594;11.368;2022-08-01T08:37:10;7.22;;;3.78;;
44270;SDS011;29963;44.594;11.368;2022-08-01T08:39:36;5.22;;;4.72;;
44270;SDS011;29963;44.594;11.368;2022-08-01T08:42:05;6.63;;;4.28;;
44270;SDS011;29963;44.594;11.368;2022-08-01T08:44:32;5.80;;;4.50;;
44270;SDS011;29963;44.594;11.368;2022-08-01T08:46:58;3.58;;;3.28;;
44270;SDS011;29963;44.594;11.368;2022-08-01T08:49:28;3.97;;;3.22;;
44270;SDS011;29963;44.594;11.368;2022-08-01T08:51:57;3.70;;;2.65;;
44270;SDS011;29963;44.594;11.368;2022-08-01T08:54:24;4.55;;;3.05;;
44270;SDS011;29963;44.594;11.368;2022-08-01T08:56:51;5.93;;;2.67;;
44270;SDS011;29963;44.594;11.368;2022-08-01T08:59:18;6.85;;;2.50;;
44270;SDS011;29963;44.594;11.368;2022-08-01T09:01:44;4.70;;;2.60;;
44270;SDS011;29963;44.594;11.368;2022-08-01T09:04:11;7.68;;;2.53;;
44270;SDS011;29963;44.594;11.368;2022-08-01T09:06:37;7.03;;;2.20;;
44270;SDS011;29963;44.594;11.368;2022-08-01T09:09:03;7.22;;;3.20;;
44270;SDS011;29963;44.594;11.368;2022-08-01T09:11:30;2.70;;;1.98;;
44270;SDS011;29963;44.594;11.368;2022-08-01T09:16:34;2.22;;;1.77;;
44270;SDS011;29963;44.594;11.368;2022-08-01T09:19:13;3.95;;;2.05;;
44270;SDS011;29963;44.594;11.368;2022-08-01T09:21:54;4.22;;;2.00;;
44270;SDS011;29963;44.594;11.368;2022-08-01T09:24:25;4.70;;;1.85;;
44270;SDS011;29963;44.594;11.368;2022-08-01T09:26:52;4.75;;;2.28;;
44270;SDS011;29963;44.594;11.368;2022-08-01T09:29:22;10.93;;;2.33;;
44270;SDS011;29963;44.594;11.368;2022-08-01T09:31:49;1.77;;;1.67;;
44270;SDS011;29963;44.594;11.368;2022-08-01T09:34:16;2.42;;;1.90;;
44270;SDS011;29963;44.594;11.368;2022-08-01T09:36:59;1.98;;;1.77;;
44270;SDS011;29963;44.594;11.368;2022-08-01T09:39:27;2.60;;;1.50;;
44270;SDS011;29963;44.594;11.368;2022-08-01T09:41:55;5.40;;;2.17;;
44270;SDS011;29963;44.594;11.368;2022-08-01T09:44:42;4.18;;;1.95;;
44270;SDS011;29963;44.594;11.368;2022-08-01T09:47:09;2.60;;;2.15;;
44270;SDS011;29963;44.594;11.368;2022-08-01T09:49:36;3.53;;;1.90;;
44270;SDS011;29963;44.594;11.368;2022-08-01T09:52:10;1.80;;;1.58;;
44270;SDS011;29963;44.594;11.368;2022-08-01T09:54:51;2.22;;;1.67;;
44270;SDS011;29963;44.594;11.368;2022-08-01T09:57:19;6.72;;;1.75;;
44270;SDS011;29963;44.594;11.368;2022-08-01T09:59:46;1.80;;;1.70;;
44270;SDS011;29963;44.594;11.368;2022-08-01T10:02:36;1.80;;;1.58;;
44270;SDS011;29963;44.594;11.368;2022-08-01T10:05:06;2.35;;;1.70;;
44270;SDS011;29963;44.594;11.368;2022-08-01T10:07:33;7.30;;;1.92;;
44270;SDS011;29963;44.594;11.368;2022-08-01T10:10:12;2.42;;;1.95;;
44270;SDS011;29963;44.594;11.368;2022-08-01T10:12:39;1.55;;;1.45;;
44270;SDS011;29963;44.594;11.368;2022-08-01T10:15:06;1.75;;;1.30;;
44270;SDS011;29963;44.594;11.368;2022-08-01T10:17:33;1.15;;;1.05;;
44270;SDS011;29963;44.594;11.368;2022-08-01T10:20:00;1.60;;;1.50;;
44270;SDS011;29963;44.594;11.368;2022-08-01T10:22:27;1.73;;;1.55;;
44270;SDS011;29963;44.594;11.368;2022-08-01T10:24:56;4.45;;;1.83;;
44270;SDS011;29963;44.594;11.368;2022-08-01T10:27:26;2.30;;;1.63;;
44270;SDS011;29963;44.594;11.368;2022-08-01T10:30:00;2.97;;;1.60;;
44270;SDS011;29963;44.594;11.368;2022-08-01T10:32:32;3.47;;;1.60;;
44270;SDS011;29963;44.594;11.368;2022-08-01T10:34:58;2.55;;;2.00;;
44270;SDS011;29963;44.594;11.368;2022-08-01T10:37:25;2.50;;;1.60;;
44270;SDS011;29963;44.594;11.368;2022-08-01T10:39:51;2.60;;;2.03;;
44270;SDS011;29963;44.594;11.368;2022-08-01T10:42:18;4.60;;;2.00;;
44270;SDS011;29963;44.594;11.368;2022-08-01T10:44:44;2.25;;;1.85;;
44270;SDS011;29963;44.594;11.368;2022-08-01T10:47:27;3.70;;;1.45;;
44270;SDS011;29963;44.594;11.368;2022-08-01T10:53:12;2.25;;;1.70;;
44270;SDS011;29963;44.594;11.368;2022-08-01T10:58:11;2.38;;;1.60;;
44270;SDS011;29963;44.594;11.368;2022-08-01T11:00:37;4.07;;;1.88;;
44270;SDS011;29963;44.594;11.368;2022-08-01T11:03:03;2.25;;;1.60;;
44270;SDS011;29963;44.594;11.368;2022-08-01T11:05:33;3.03;;;1.33;;
44270;SDS011;29963;44.594;11.368;2022-08-01T11:08:07;2.50;;;1.63;;
44270;SDS011;29963;44.594;11.368;2022-08-01T11:13:05;5.65;;;2.08;;
44270;SDS011;29963;44.594;11.368;2022-08-01T11:15:36;2.35;;;1.48;;
44270;SDS011;29963;44.594;11.368;2022-08-01T11:18:03;1.88;;;1.52;;
44270;SDS011;29963;44.594;11.368;2022-08-01T11:20:54;1.98;;;1.30;;
44270;SDS011;29963;44.594;11.368;2022-08-01T11:23:23;5.85;;;1.67;;
44270;SDS011;29963;44.594;11.368;2022-08-01T11:28:19;3.13;;;1.42;;
44270;SDS011;29963;44.594;11.368;2022-08-01T11:30:49;3.03;;;1.50;;
44270;SDS011;29963;44.594;11.368;2022-08-01T11:33:16;2.72;;;1.65;;
44270;SDS011;29963;44.594;11.368;2022-08-01T11:38:37;3.08;;;1.80;;
44270;SDS011;29963;44.594;11.368;2022-08-01T11:44:07;10.68;;;1.48;;
44270;SDS011;29963;44.594;11.368;2022-08-01T11:49:25;2.28;;;1.40;;
44270;SDS011;29963;44.594;11.368;2022-08-01T11:51:57;4.28;;;1.58;;
44270;SDS011;29963;44.594;11.368;2022-08-01T11:54:32;1.80;;;1.42;;
44270;SDS011;29963;44.594;11.368;2022-08-01T11:57:01;1.80;;;1.65;;
44270;SDS011;29963;44.594;11.368;2022-08-01T11:59:28;2.15;;;1.23;;
44270;SDS011;29963;44.594;11.368;2022-08-01T12:02:01;3.67;;;1.15;;
44270;SDS011;29963;44.594;11.368;2022-08-01T12:04:43;2.13;;;1.10;;
44270;SDS011;29963;44.594;11.368;2022-08-01T12:07:17;1.38;;;1.20;;
44270;SDS011;29963;44.594;11.368;2022-08-01T12:09:43;1.48;;;1.38;;
44270;SDS011;29963;44.594;11.368;2022-08-01T12:12:11;1.90;;;1.50;;
44270;SDS011;29963;44.594;11.368;2022-08-01T12:14:39;3.40;;;1.40;;
44270;SDS011;29963;44.594;11.368;2022-08-01T12:17:05;2.50;;;1.13;;
44270;SDS011;29963;44.594;11.368;2022-08-01T12:19:31;3.53;;;1.25;;
44270;SDS011;29963;44.594;11.368;2022-08-01T12:22:06;1.92;;;1.23;;
44270;SDS011;29963;44.594;11.368;2022-08-01T12:24:37;3.92;;;1.20;;
44270;SDS011;29963;44.594;11.368;2022-08-01T12:27:05;1.40;;;1.30;;
44270;SDS011;29963;44.594;11.368;2022-08-01T12:29:39;1.40;;;1.30;;
44270;SDS011;29963;44.594;11.368;2022-08-01T12:34:52;2.03;;;1.50;;
44270;SDS011;29963;44.594;11.368;2022-08-01T12:37:20;4.20;;;1.40;;
44270;SDS011;29963;44.594;11.368;2022-08-01T12:39:46;1.40;;;1.25;;
44270;SDS011;29963;44.594;11.368;2022-08-01T12:42:13;1.70;;;1.00;;
44270;SDS011;29963;44.594;11.368;2022-08-01T12:44:39;1.85;;;1.60;;
44270;SDS011;29963;44.594;11.368;2022-08-01T12:47:07;2.53;;;1.45;;
44270;SDS011;29963;44.594;11.368;2022-08-01T12:49:37;2.20;;;1.20;;
44270;SDS011;29963;44.594;11.368;2022-08-01T12:52:03;10.75;;;1.38;;
44270;SDS011;29963;44.594;11.368;2022-08-01T12:54:30;1.52;;;1.25;;
44270;SDS011;29963;44.594;11.368;2022-08-01T12:57:22;1.25;;;1.08;;
44270;SDS011;29963;44.594;11.368;2022-08-01T12:59:52;1.23;;;1.00;;
44270;SDS011;29963;44.594;11.368;2022-08-01T13:02:18;2.75;;;1.10;;
44270;SDS011;29963;44.594;11.368;2022-08-01T13:04:53;3.10;;;1.60;;
44270;SDS011;29963;44.594;11.368;2022-08-01T13:07:18;1.80;;;1.30;;
44270;SDS011;29963;44.594;11.368;2022-08-01T13:09:50;1.52;;;1.42;;
44270;SDS011;29963;44.594;11.368;2022-08-01T13:12:16;1.45;;;1.33;;
44270;SDS011;29963;44.594;11.368;2022-08-01T13:14:42;3.22;;;1.00;;
44270;SDS011;29963;44.594;11.368;2022-08-01T13:17:08;1.92;;;1.30;;
44270;SDS011;29963;44.594;11.368;2022-08-01T13:19:43;2.15;;;1.52;;
44270;SDS011;29963;44.594;11.368;2022-08-01T13:22:09;1.08;;;1.00;;
44270;SDS011;29963;44.594;11.368;2022-08-01T13:24:35;3.17;;;1.23;;
44270;SDS011;29963;44.594;11.368;2022-08-01T13:27:01;2.50;;;1.98;;
44270;SDS011;29963;44.594;11.368;2022-08-01T13:29:38;5.22;;;1.58;;
44270;SDS011;29963;44.594;11.368;2022-08-01T13:34:46;2.28;;;1.20;;
44270;SDS011;29963;44.594;11.368;2022-08-01T13:37:12;3.55;;;1.75;;
44270;SDS011;29963;44.594;11.368;2022-08-01T13:39:38;1.67;;;1.25;;
44270;SDS011;29963;44.594;11.368;2022-08-01T13:42:10;1.38;;;1.08;;
44270;SDS011;29963;44.594;11.368;2022-08-01T13:44:40;1.63;;;1.10;;
44270;SDS011;29963;44.594;11.368;2022-08-01T13:47:06;1.45;;;1.08;;
44270;SDS011;29963;44.594;11.368;2022-08-01T13:49:32;2.47;;;1.00;;
44270;SDS011;29963;44.594;11.368;2022-08-01T13:51:58;2.58;;;1.23;;
44270;SDS011;29963;44.594;11.368;2022-08-01T13:54:25;0.70;;;0.70;;
44270;SDS011;29963;44.594;11.368;2022-08-01T13:56:51;3.40;;;0.98;;
44270;SDS011;29963;44.594;11.368;2022-08-01T13:59:18;4.18;;;1.00;;
44270;SDS011;29963;44.594;11.368;2022-08-01T14:01:43;1.95;;;1.15;;
44270;SDS011;29963;44.594;11.368;2022-08-01T14:04:09;1.20;;;1.00;;
44270;SDS011;29963;44.594;11.368;2022-08-01T14:06:35;2.05;;;0.93;;
44270;SDS011;29963;44.594;11.368;2022-08-01T14:09:01;0.95;;;0.90;;
44270;SDS011;29963;44.594;11.368;2022-08-01T14:11:30;2.17;;;1.20;;
44270;SDS011;29963;44.594;11.368;2022-08-01T14:13:56;1.33;;;1.23;;
44270;SDS011;29963;44.594;11.368;2022-08-01T14:16:22;1.65;;;0.90;;
44270;SDS011;29963;44.594;11.368;2022-08-01T14:18:47;1.60;;;0.90;;
44270;SDS011;29963;44.594;11.368;2022-08-01T14:21:13;2.15;;;1.00;;
44270;SDS011;29963;44.594;11.368;2022-08-01T14:23:40;1.20;;;0.95;;
44270;SDS011;29963;44.594;11.368;2022-08-01T14:26:07;3.33;;;1.05;;
44270;SDS011;29963;44.594;11.368;2022-08-01T14:28:33;2.95;;;0.70;;
44270;SDS011;29963;44.594;11.368;2022-08-01T14:30:59;2.08;;;0.80;;
44270;SDS011;29963;44.594;11.368;2022-08-01T14:33:28;5.55;;;1.63;;
44270;SDS011;29963;44.594;11.368;2022-08-01T14:35:54;0.77;;;0.77;;
44270;SDS011;29963;44.594;11.368;2022-08-01T14:38:20;0.90;;;0.77;;
44270;SDS011;29963;44.594;11.368;2022-08-01T14:40:46;1.05;;;0.90;;
44270;SDS011;29963;44.594;11.368;2022-08-01T14:43:16;3.47;;;1.10;;
44270;SDS011;29963;44.594;11.368;2022-08-01T14:45:44;1.50;;;1.17;;
44270;SDS011;29963;44.594;11.368;2022-08-01T14:48:10;2.72;;;1.02;;
44270;SDS011;29963;44.594;11.368;2022-08-01T14:50:39;1.88;;;0.98;;
44270;SDS011;29963;44.594;11.368;2022-08-01T14:53:04;2.28;;;1.45;;
44270;SDS011;29963;44.594;11.368;2022-08-01T14:55:30;1.65;;;1.00;;
44270;SDS011;29963;44.594;11.368;2022-08-01T14:57:56;1.27;;;0.90;;
44270;SDS011;29963;44.594;11.368;2022-08-01T15:00:21;0.93;;;0.93;;
44270;SDS011;29963;44.594;11.368;2022-08-01T15:02:47;3.35;;;0.90;;
44270;SDS011;29963;44.594;11.368;2022-08-01T15:05:13;1.35;;;0.90;;
44270;SDS011;29963;44.594;11.368;2022-08-01T15:07:38;1.58;;;0.93;;
44270;SDS011;29963;44.594;11.368;2022-08-01T15:10:05;2.58;;;1.00;;
44270;SDS011;29963;44.594;11.368;2022-08-01T15:12:31;0.98;;;0.80;;
44270;SDS011;29963;44.594;11.368;2022-08-01T15:14:57;1.33;;;1.00;;